EDT,Max TemperatureF,Mean TemperatureF,Min TemperatureF,Max Dew PointF,MeanDew PointF,Min DewpointF,Max Humidity, Mean Humidity, Min Humidity, Max Sea Level PressureIn, Mean Sea Level PressureIn, Min Sea Level PressureIn, Max VisibilityMiles, Mean VisibilityMiles, Min VisibilityMiles, Max Wind SpeedMPH, Mean Wind SpeedMPH, Max Gust SpeedMPH,PrecipitationIn, CloudCover, Events, WindDirDegrees
2013-8-1,80,69,58,68,61,56,100,74,47,30.02,29.97,29.93,10,6,1,17,6,24,0.00,4,,301
2013-8-2,84,70,55,64,58,53,93,70,47,29.99,29.95,29.91,10,10,10,21,8,28,0.01,3,,218
2013-8-3,81,70,58,66,63,54,100,77,54,30.07,29.99,29.94,10,8,1,17,5,22,0.93,6,Rain-Thunderstorm,348
2013-8-4,76,64,52,58,54,50,96,71,46,30.17,30.12,30.07,10,10,10,14,4,17,0.00,1,,354
2013-8-5,78,68,58,61,58,55,93,71,48,30.11,30.05,29.95,10,10,8,14,4,20,0.03,6,Rain,193
2013-8-6,78,71,63,68,63,58,84,77,69,29.97,29.93,29.90,10,10,8,12,6,14,0.00,5,,190
2013-8-7,83,77,71,71,70,67,93,79,65,29.95,29.90,29.85,10,7,2,12,5,15,T,5,,212
2013-8-8,82,75,68,73,70,66,100,87,74,29.98,29.94,29.89,10,4,0,12,4,22,0.19,7,Fog-Rain-Thunderstorm,26
2013-8-9,82,75,67,68,66,63,93,74,54,30.04,29.97,29.92,10,6,2,9,4,17,0.01,6,Rain,27
2013-8-10,84,75,66,68,65,63,93,72,51,30.10,30.06,30.04,10,10,7,10,3,14,0.01,3,,313
2013-8-11,83,72,61,67,63,60,93,72,51,30.12,30.09,30.05,10,5,0,12,3,,0.00,2,Fog,1
2013-8-12,84,73,61,65,63,60,93,72,51,30.08,29.98,29.87,10,9,6,12,5,15,0.00,0,,229
2013-8-13,74,63,51,65,58,47,93,69,45,30.09,29.95,29.86,10,8,2,18,8,24,0.00,3,,340
2013-8-14,69,57,45,50,47,44,93,69,45,30.19,30.16,30.09,10,10,10,13,4,16,0.00,2,,4
2013-8-15,73,59,45,53,48,43,93,69,44,30.19,30.16,30.12,10,10,2,5,1,,0.00,0,,62
2013-8-16,74,63,52,57,53,50,93,69,44,30.18,30.16,30.12,10,10,10,12,3,17,0.00,1,,81
2013-8-17,79,66,53,58,55,51,93,68,43,30.22,30.18,30.14,10,10,9,15,5,18,0.00,0,,69
2013-8-18,83,68,53,62,56,51,100,69,37,30.20,30.16,30.10,10,6,0,12,2,16,0.00,1,Fog,56
2013-8-19,85,71,56,62,58,54,93,68,43,30.14,30.10,30.06,10,10,10,9,2,14,0.00,1,,317
2013-8-20,85,72,59,64,60,57,97,72,46,30.16,30.11,30.09,10,9,6,12,3,16,0.00,1,,158
2013-8-21,86,76,65,69,65,59,87,64,40,30.18,30.10,30.04,10,10,7,12,3,15,0.00,3,,195
2013-8-22,81,73,65,70,67,63,97,82,67,30.12,30.07,30.01,10,9,2,22,5,31,0.16,4,Rain,285
2013-8-23,82,71,59,67,63,58,100,76,51,30.16,30.11,30.06,10,5,0,12,4,15,0.00,4,Fog,33
2013-8-24,84,67,50,61,55,49,100,69,37,30.28,30.24,30.17,10,9,2,12,3,25,0.00,0,,108
2013-8-25,87,72,56,60,57,54,93,64,34,30.31,30.26,30.20,10,10,7,10,4,16,0.00,0,,199
2013-8-26,88,75,62,71,64,56,79,63,46,30.23,30.15,30.06,10,10,9,15,7,18,0.00,0,,247
2013-8-27,92,82,72,72,69,66,93,70,47,30.06,29.99,29.94,10,9,4,16,8,21,0.00,0,,246
2013-8-28,90,81,71,73,70,67,93,74,55,29.98,29.91,29.89,10,10,8,17,8,23,0.00,2,,283
2013-8-29,86,76,65,70,67,64,100,76,51,30.09,30.03,29.98,10,5,0,13,3,15,0.00,4,Fog,65
2013-8-30,91,77,63,70,65,62,93,69,44,30.01,29.92,29.81,10,8,1,13,5,17,0.07,2,Rain-Thunderstorm,241
2013-8-31,89,79,69,72,67,63,90,67,43,29.88,29.82,29.76,10,8,1,24,7,29,0.86,4,Rain,168